createdAt,value
2023-02-25T00:02:10.549Z,97734.19
2023-02-25T00:04:42.535Z,97745.22
2023-02-25T00:07:11.429Z,97749.53
2023-02-25T00:09:40.251Z,97746.13
2023-02-25T00:12:09.296Z,97744.44
2023-02-25T00:14:37.977Z,97750.38
2023-02-25T00:17:07.098Z,97753.69
2023-02-25T00:19:36.229Z,97745.16
2023-02-25T00:22:06.525Z,97746.81
2023-02-25T00:24:35.262Z,97737.44
2023-02-25T00:27:04.016Z,97745.13
2023-02-25T00:29:33.016Z,97739.19
2023-02-25T00:32:01.845Z,97729.91
2023-02-25T00:34:31.099Z,97729.06
2023-02-25T00:36:59.872Z,97719.75
2023-02-25T00:39:42.520Z,97707.84
2023-02-25T00:42:11.841Z,97705.28
2023-02-25T00:44:41.039Z,97695.97
2023-02-25T00:47:10.048Z,97698.53
2023-02-25T00:49:40.283Z,97695.19
2023-02-25T00:52:09.288Z,97691.03
2023-02-25T00:54:39.723Z,97686.84
2023-02-25T00:57:08.590Z,97683.50
2023-02-25T00:59:37.978Z,97674.25
2023-02-25T01:02:06.851Z,97665.03
2023-02-25T01:04:35.497Z,97649.00
2023-02-25T01:07:04.316Z,97641.38
2023-02-25T01:09:34.689Z,97638.03
2023-02-25T01:12:06.615Z,97639.78
2023-02-25T01:14:35.521Z,97627.13
2023-02-25T01:17:06.153Z,97628.78
2023-02-25T01:19:34.922Z,97633.00
2023-02-25T01:22:03.816Z,97637.38
2023-02-25T01:24:35.090Z,97638.25
2023-02-25T01:27:07.314Z,97645.09
2023-02-25T01:29:40.552Z,97650.16
2023-02-25T01:32:14.784Z,97634.94
2023-02-25T01:34:44.105Z,97634.88
2023-02-25T01:37:12.782Z,97635.75
2023-02-25T01:39:42.345Z,97637.41
2023-02-25T01:42:16.000Z,97640.75
2023-02-25T01:45:17.622Z,97634.88
2023-02-25T01:47:50.418Z,97641.66
2023-02-25T01:50:19.879Z,97641.75
2023-02-25T01:52:49.107Z,97641.75
2023-02-25T01:55:17.873Z,97641.75
2023-02-25T01:57:48.386Z,97639.16
2023-02-25T02:00:18.937Z,97631.66
2023-02-25T02:02:50.799Z,97630.78
2023-02-25T02:05:20.817Z,97623.19
2023-02-25T02:07:49.798Z,97618.16
2023-02-25T02:10:20.109Z,97629.97
2023-02-25T02:12:50.548Z,97623.16
2023-02-25T02:15:19.442Z,97626.59
2023-02-25T02:17:57.232Z,97618.16
2023-02-25T02:20:28.909Z,97629.13
2023-02-25T02:23:22.367Z,97636.75
2023-02-25T02:26:14.061Z,97657.06
2023-02-25T02:29:04.577Z,97650.28
2023-02-25T02:31:43.094Z,97657.97
2023-02-25T02:34:26.494Z,97665.75
2023-02-25T02:37:06.067Z,97666.63
2023-02-25T02:39:51.648Z,97675.19
2023-02-25T02:42:32.485Z,97680.47
2023-02-25T02:45:08.600Z,97679.72
2023-02-25T02:47:40.797Z,97683.22
2023-02-25T02:50:13.495Z,97686.59
2023-02-25T02:52:47.792Z,97691.84
2023-02-25T02:55:23.837Z,97695.28
2023-02-25T02:57:59.756Z,97715.69
2023-02-25T03:00:32.052Z,97718.28
2023-02-25T03:03:09.562Z,97715.84
2023-02-25T03:05:42.540Z,97723.50
2023-02-25T03:08:15.980Z,97704.88
2023-02-25T03:10:46.790Z,97711.94
2023-02-25T03:13:17.038Z,97704.50
2023-02-25T03:15:46.014Z,97707.97
2023-02-25T03:18:23.973Z,97699.53
2023-02-25T03:20:56.322Z,97698.75
2023-02-25T03:23:30.684Z,97704.69
2023-02-25T03:26:12.161Z,97698.78
2023-02-25T03:28:43.089Z,97706.41
2023-02-25T03:31:21.914Z,97708.94
2023-02-25T03:33:56.422Z,97708.97
2023-02-25T03:36:30.109Z,97701.34
2023-02-25T03:39:02.821Z,97687.78
2023-02-25T03:41:36.142Z,97707.25
2023-02-25T03:44:10.852Z,97707.25
2023-02-25T03:46:44.568Z,97704.81
2023-02-25T03:49:22.778Z,97704.84
2023-02-25T03:51:57.411Z,97705.78
2023-02-25T03:54:27.707Z,97701.50
2023-02-25T03:56:57.173Z,97686.28
2023-02-25T03:59:28.535Z,97694.78
2023-02-25T04:02:00.348Z,97696.56
2023-02-25T04:04:30.675Z,97703.34
2023-02-25T04:06:59.493Z,97707.59
2023-02-25T04:09:28.475Z,97713.56
2023-02-25T04:11:57.281Z,97715.22
2023-02-25T04:14:26.483Z,97725.34
2023-02-25T04:16:55.284Z,97731.28
2023-02-25T04:19:24.066Z,97735.50
2023-02-25T04:21:54.342Z,97738.06
2023-02-25T04:24:23.186Z,97744.00
2023-02-25T04:26:58.660Z,97747.41
2023-02-25T04:29:27.524Z,97749.22
2023-02-25T04:31:56.490Z,97748.53
2023-02-25T04:34:25.211Z,97757.13
2023-02-25T04:36:55.762Z,97756.34
2023-02-25T04:39:24.565Z,97751.44
2023-02-25T04:41:53.272Z,97737.22
2023-02-25T04:44:22.060Z,97734.69
2023-02-25T04:46:52.242Z,97729.66
2023-02-25T04:49:22.854Z,97749.06
2023-02-25T04:51:52.707Z,97759.25
2023-02-25T04:54:23.323Z,97754.28
2023-02-25T04:56:52.080Z,97745.78
2023-02-25T04:59:20.817Z,97749.19
2023-02-25T05:01:49.734Z,97750.84
2023-02-25T05:04:18.525Z,97757.66
2023-02-25T05:06:47.229Z,97751.81
2023-02-25T05:09:16.816Z,97763.56
2023-02-25T05:11:46.971Z,97755.16
2023-02-25T05:14:15.888Z,97750.06
2023-02-25T05:16:44.721Z,97755.91
2023-02-25T05:19:17.560Z,97753.38
2023-02-25T05:21:46.328Z,97764.38
2023-02-25T05:24:15.028Z,97744.13
2023-02-25T05:26:43.938Z,97743.38
2023-02-25T05:29:14.149Z,97761.91
2023-02-25T05:31:43.084Z,97761.06
2023-02-25T05:34:12.072Z,97754.44
2023-02-25T05:36:41.756Z,97763.69
2023-02-25T05:39:14.717Z,97768.75
2023-02-25T05:41:43.470Z,97781.41
2023-02-25T05:44:13.722Z,97786.41
2023-02-25T05:46:42.458Z,97789.00
2023-02-25T05:49:11.577Z,97786.47
2023-02-25T05:51:40.762Z,97785.66
2023-02-25T05:54:09.574Z,97796.69
2023-02-25T05:56:38.391Z,97807.63
2023-02-25T05:59:07.433Z,97811.03
2023-02-25T06:01:37.603Z,97822.88
2023-02-25T06:04:06.424Z,97821.16
2023-02-25T06:06:35.140Z,97822.88
2023-02-25T06:09:06.956Z,97822.00
2023-02-25T06:11:35.723Z,97821.97
2023-02-25T06:14:04.939Z,97816.91
2023-02-25T06:16:33.887Z,97819.44
2023-02-25T06:19:04.283Z,97833.00
2023-02-25T06:21:33.018Z,97854.97
2023-02-25T06:24:04.194Z,97853.31
2023-02-25T06:26:35.757Z,97863.50
2023-02-25T06:29:04.556Z,97876.19
2023-02-25T06:31:34.876Z,97877.03
2023-02-25T06:34:05.492Z,97870.44
2023-02-25T06:36:34.936Z,97887.25
2023-02-25T06:39:03.617Z,97893.94
2023-02-25T06:41:32.507Z,97900.72
2023-02-25T06:44:01.265Z,97904.09
2023-02-25T06:46:30.403Z,97904.09
2023-02-25T06:48:59.127Z,97905.78
2023-02-25T06:51:29.239Z,97896.56
2023-02-25T06:53:58.182Z,97900.75
2023-02-25T06:56:27.039Z,97914.22
2023-02-25T06:58:57.069Z,97924.31
2023-02-25T07:01:27.220Z,97926.00
2023-02-25T07:03:55.530Z,97925.13
2023-02-25T07:06:24.435Z,97931.88
2023-02-25T07:08:54.773Z,97945.31
2023-02-25T07:11:34.021Z,97941.16
2023-02-25T07:14:03.113Z,97944.56
2023-02-25T07:16:31.850Z,97949.66
2023-02-25T07:19:01.843Z,97944.59
2023-02-25T07:21:31.256Z,97941.31
2023-02-25T07:24:01.557Z,97930.28
2023-02-25T07:26:31.728Z,97937.03
2023-02-25T07:29:01.198Z,97953.09
2023-02-25T07:31:30.303Z,97954.81
2023-02-25T07:34:03.854Z,97953.16
2023-02-25T07:36:35.478Z,97960.72
2023-02-25T07:39:07.418Z,97957.38
2023-02-25T07:41:37.295Z,97944.66
2023-02-25T07:44:07.469Z,97934.44
2023-02-25T07:46:36.155Z,97931.81
2023-02-25T07:49:05.409Z,97935.78
2023-02-25T07:51:34.307Z,97929.72
2023-02-25T07:54:03.220Z,97924.59
2023-02-25T07:56:33.799Z,97928.97
2023-02-25T07:59:02.543Z,97928.94
2023-02-25T08:01:34.350Z,97929.59
2023-02-25T08:04:06.585Z,97933.75
2023-02-25T08:06:39.097Z,97935.44
2023-02-25T08:09:11.276Z,97948.06
2023-02-25T08:11:43.052Z,97945.53
2023-02-25T08:14:12.235Z,97945.41
2023-02-25T08:16:40.991Z,97935.00
2023-02-25T08:19:09.884Z,97939.94
2023-02-25T08:21:40.770Z,97931.25
2023-02-25T08:24:10.140Z,97931.19
2023-02-25T08:26:39.031Z,97924.41
2023-02-25T08:29:09.253Z,97931.00
2023-02-25T08:31:38.200Z,97923.81
2023-02-25T08:34:07.350Z,97921.94
2023-02-25T08:36:37.208Z,97921.72
2023-02-25T08:39:06.112Z,97932.59
2023-02-25T08:41:34.859Z,97926.84
2023-02-25T08:44:03.509Z,97932.03
2023-02-25T08:46:35.755Z,97933.72
2023-02-25T08:49:05.490Z,97933.84
2023-02-25T08:51:39.095Z,97944.00
2023-02-25T08:54:12.229Z,97936.50
2023-02-25T08:56:44.889Z,97946.22
2023-02-25T08:59:16.408Z,97945.59
2023-02-25T09:01:46.955Z,97954.94
2023-02-25T09:04:17.904Z,97949.97
2023-02-25T09:06:48.010Z,97960.19
2023-02-25T09:09:17.516Z,97959.34
2023-02-25T09:11:46.890Z,97962.69
2023-02-25T09:14:16.394Z,97961.72
2023-02-25T09:16:47.063Z,97965.06
2023-02-25T09:19:18.277Z,97950.75
2023-02-25T09:21:48.590Z,97964.13
2023-02-25T09:24:17.904Z,97965.31
2023-02-25T09:26:46.635Z,97955.66
2023-02-25T09:29:15.679Z,97956.34
2023-02-25T09:31:44.619Z,97967.59
2023-02-25T09:34:15.538Z,97972.75
2023-02-25T09:36:44.516Z,97970.19
2023-02-25T09:39:13.837Z,97960.13
2023-02-25T09:41:50.586Z,97962.72
2023-02-25T09:44:23.030Z,97968.81
2023-02-25T09:46:54.886Z,97953.56
2023-02-25T09:49:31.696Z,97953.63
2023-02-25T09:52:07.617Z,97952.09
2023-02-25T09:54:40.778Z,97968.31
2023-02-25T09:57:19.249Z,97960.75
2023-02-25T09:59:49.409Z,97964.09
2023-02-25T10:02:22.579Z,97965.72
2023-02-25T10:05:18.492Z,97961.41
2023-02-25T10:08:00.328Z,97962.13
2023-02-25T10:10:36.966Z,97957.00
2023-02-25T10:13:19.462Z,97969.59
2023-02-25T10:15:59.411Z,97960.34
2023-02-25T10:18:42.486Z,97967.97
2023-02-25T10:21:25.343Z,97957.88
2023-02-25T10:24:12.701Z,97961.31
2023-02-25T10:26:44.312Z,97956.31
2023-02-25T10:29:17.643Z,97957.25
2023-02-25T10:31:46.895Z,97951.44
2023-02-25T10:34:26.307Z,97954.94
2023-02-25T10:36:59.332Z,97949.81
2023-02-25T10:39:31.731Z,97943.00
2023-02-25T10:42:00.556Z,97939.56
2023-02-25T10:44:29.302Z,97938.75
2023-02-25T10:47:03.677Z,97941.25
2023-02-25T10:49:38.365Z,97939.47
2023-02-25T10:52:15.884Z,97938.59
2023-02-25T10:54:50.331Z,97935.25
2023-02-25T10:57:26.178Z,97933.53
2023-02-25T11:00:04.176Z,97932.63
2023-02-25T11:02:39.463Z,97927.44
2023-02-25T11:05:29.256Z,97924.91
2023-02-25T11:07:59.120Z,97924.00
2023-02-25T11:10:27.792Z,97924.78
2023-02-25T11:12:59.588Z,97924.63
2023-02-25T11:15:50.138Z,97914.25
2023-02-25T11:18:23.952Z,97915.69
2023-02-25T11:20:56.569Z,97913.91
2023-02-25T11:23:40.130Z,97908.00
2023-02-25T11:26:10.050Z,97902.94
2023-02-25T11:28:40.741Z,97911.53
2023-02-25T11:31:14.542Z,97901.56
2023-02-25T11:33:51.042Z,97905.91
2023-02-25T11:36:23.801Z,97903.38
2023-02-25T11:39:15.035Z,97905.97
2023-02-25T11:41:45.574Z,97908.63
2023-02-25T11:44:28.484Z,97912.19
2023-02-25T11:47:02.551Z,97909.75
2023-02-25T11:49:50.972Z,97906.41
2023-02-25T11:52:26.690Z,97905.53
2023-02-25T11:55:12.892Z,97903.00
2023-02-25T11:57:58.829Z,97908.88
2023-02-25T12:00:33.555Z,97910.47
2023-02-25T12:03:17.157Z,97911.34
2023-02-25T12:05:53.946Z,97910.53
2023-02-25T12:08:40.728Z,97913.91
2023-02-25T12:11:42.810Z,97903.63
2023-02-25T12:14:40.293Z,97917.22
2023-02-25T12:17:40.745Z,97915.47
2023-02-25T12:20:35.025Z,97920.56
2023-02-25T12:23:32.237Z,97919.63
2023-02-25T12:26:11.007Z,97922.13
2023-02-25T12:28:53.036Z,97920.38
2023-02-25T12:31:44.022Z,97915.16
2023-02-25T12:34:38.353Z,97905.69
2023-02-25T12:37:31.191Z,97902.44
2023-02-25T12:40:22.177Z,97914.25
2023-02-25T12:43:04.218Z,97915.00
2023-02-25T12:45:54.020Z,97901.31
2023-02-25T12:48:50.594Z,97896.13
2023-02-25T12:51:42.354Z,97913.03
2023-02-25T12:54:30.425Z,97910.94
2023-02-25T12:57:23.216Z,97912.84
2023-02-25T13:00:27.344Z,97918.56
2023-02-25T13:03:21.931Z,97919.69
2023-02-25T13:06:09.119Z,97920.88
2023-02-25T13:08:51.251Z,97917.75
2023-02-25T13:11:37.984Z,97919.56
2023-02-25T13:14:36.753Z,97918.78
2023-02-25T13:17:35.624Z,97918.94
2023-02-25T13:20:25.328Z,97906.28
2023-02-25T13:23:00.370Z,97917.31
2023-02-25T13:25:47.240Z,97917.31
2023-02-25T13:28:35.626Z,97921.47
2023-02-25T13:31:10.696Z,97936.44
2023-02-25T13:33:58.887Z,97933.91
2023-02-25T13:36:54.693Z,97931.44
2023-02-25T13:39:46.997Z,97937.50
2023-02-25T13:42:43.561Z,97944.41
2023-02-25T13:45:30.899Z,97938.66
2023-02-25T13:48:11.528Z,97940.41
2023-02-25T13:50:54.598Z,97935.31
2023-02-25T13:53:53.600Z,97932.78
2023-02-25T13:56:40.363Z,97931.03
2023-02-25T13:59:27.202Z,97945.41
2023-02-25T14:02:07.190Z,97950.47
2023-02-25T14:04:56.790Z,97963.28
2023-02-25T14:07:34.949Z,97976.19
2023-02-25T14:10:23.058Z,97978.00
2023-02-25T14:13:16.332Z,97989.13
2023-02-25T14:15:56.919Z,97986.63
2023-02-25T14:18:44.545Z,97984.91
2023-02-25T14:21:46.791Z,97988.31
2023-02-25T14:24:25.688Z,97987.47
2023-02-25T14:27:07.471Z,98000.16
2023-02-25T14:29:58.126Z,98000.16
2023-02-25T14:32:45.000Z,98004.31
2023-02-25T14:35:34.547Z,98006.06
2023-02-25T14:38:09.435Z,98010.41
2023-02-25T14:40:46.549Z,98018.03
2023-02-25T14:43:32.515Z,98013.72
2023-02-25T14:46:15.578Z,98015.31
2023-02-25T14:48:50.318Z,98023.09
2023-02-25T14:51:48.017Z,98038.31
2023-02-25T14:54:55.719Z,98032.44
2023-02-25T14:58:00.575Z,98038.47
2023-02-25T15:00:51.827Z,98035.91
2023-02-25T15:03:59.163Z,98029.19
2023-02-25T15:07:01.063Z,98030.88
2023-02-25T15:10:06.002Z,98045.34
2023-02-25T15:12:51.637Z,98052.13
2023-02-25T15:15:46.859Z,98054.72
2023-02-25T15:18:42.972Z,98060.63
2023-02-25T15:21:37.270Z,98064.91
2023-02-25T15:24:11.682Z,98062.41
2023-02-25T15:26:46.853Z,98084.38
2023-02-25T15:29:47.485Z,98083.59
2023-02-25T15:32:24.772Z,98102.44
2023-02-25T15:35:00.155Z,98086.72
2023-02-25T15:37:34.883Z,98085.25
2023-02-25T15:40:45.463Z,98080.28
2023-02-25T15:43:36.042Z,98081.19
2023-02-25T15:46:30.609Z,98073.66
2023-02-25T15:49:15.097Z,98079.75
2023-02-25T15:51:47.649Z,98083.09
2023-02-25T15:54:42.476Z,98089.13
2023-02-25T15:57:37.215Z,98090.06
2023-02-25T16:00:43.899Z,98095.13
2023-02-25T16:03:28.947Z,98096.00
2023-02-25T16:06:03.629Z,98098.59
2023-02-25T16:08:40.036Z,98096.06
2023-02-25T16:11:20.892Z,98100.31
2023-02-25T16:13:50.337Z,98103.66
2023-02-25T16:16:23.167Z,98092.72
2023-02-25T16:18:54.647Z,98091.06
2023-02-25T16:21:29.166Z,98082.66
2023-02-25T16:24:00.766Z,98080.06
2023-02-25T16:26:45.461Z,98075.03
2023-02-25T16:29:29.056Z,98071.66
2023-02-25T16:32:05.414Z,98083.44
2023-02-25T16:34:40.959Z,98077.53
2023-02-25T16:37:18.561Z,98076.72
2023-02-25T16:39:47.680Z,98080.13
2023-02-25T16:42:20.696Z,98080.13
2023-02-25T16:45:00.307Z,98093.66
2023-02-25T16:47:31.933Z,98096.19
2023-02-25T16:50:04.172Z,98107.13
2023-02-25T16:52:37.550Z,98102.06
2023-02-25T16:55:12.996Z,98120.53
2023-02-25T16:57:41.874Z,98127.31
2023-02-25T17:00:21.561Z,98134.09
2023-02-25T17:02:53.715Z,98142.53
2023-02-25T17:05:30.402Z,98148.50
2023-02-25T17:08:02.200Z,98151.88
2023-02-25T17:10:33.721Z,98150.22
2023-02-25T17:13:05.403Z,98144.34
2023-02-25T17:15:37.890Z,98145.25
2023-02-25T17:18:16.980Z,98152.00
2023-02-25T17:20:46.080Z,98144.41
2023-02-25T17:23:16.965Z,98154.53
2023-02-25T17:25:49.107Z,98148.66
2023-02-25T17:28:23.729Z,98169.72
2023-02-25T17:30:53.210Z,98172.22
2023-02-25T17:33:27.117Z,98173.06
2023-02-25T17:35:58.996Z,98179.78
2023-02-25T17:38:29.242Z,98175.56
2023-02-25T17:40:59.471Z,98172.22
2023-02-25T17:43:36.544Z,98168.88
2023-02-25T17:46:17.951Z,98159.63
2023-02-25T17:48:54.306Z,98163.81
2023-02-25T17:51:33.481Z,98164.66
2023-02-25T17:54:08.372Z,98174.75
2023-02-25T17:56:38.207Z,98182.34
2023-02-25T17:59:09.459Z,98173.91
2023-02-25T18:01:49.280Z,98167.19
2023-02-25T18:04:27.877Z,98177.28
2023-02-25T18:06:57.006Z,98166.34
2023-02-25T18:09:40.611Z,98163.81
2023-02-25T18:12:23.636Z,98168.88
2023-02-25T18:14:57.031Z,98162.94
2023-02-25T18:17:28.394Z,98162.09
2023-02-25T18:20:00.527Z,98175.50
2023-02-25T18:22:35.404Z,98172.16
2023-02-25T18:25:07.877Z,98177.19
2023-02-25T18:27:38.137Z,98181.41
2023-02-25T18:30:19.006Z,98184.81
2023-02-25T18:32:48.427Z,98194.06
2023-02-25T18:35:19.796Z,98196.59
2023-02-25T18:37:51.364Z,98189.84
2023-02-25T18:40:26.311Z,98196.56
2023-02-25T18:42:55.396Z,98196.56
2023-02-25T18:45:26.544Z,98184.75
2023-02-25T18:47:57.086Z,98181.38
2023-02-25T18:50:30.404Z,98192.31
2023-02-25T18:52:59.835Z,98189.75
2023-02-25T18:55:31.329Z,98188.06
2023-02-25T18:58:01.305Z,98188.91
2023-02-25T19:00:30.316Z,98205.72
2023-02-25T19:03:01.245Z,98220.06
2023-02-25T19:05:32.071Z,98216.72
2023-02-25T19:08:01.220Z,98218.41
2023-02-25T19:10:31.914Z,98220.09
2023-02-25T19:13:04.255Z,98221.75
2023-02-25T19:15:33.219Z,98220.09
2023-02-25T19:18:01.976Z,98223.44
2023-02-25T19:20:32.283Z,98225.16
2023-02-25T19:23:01.026Z,98230.19
2023-02-25T19:25:32.425Z,98235.25
2023-02-25T19:28:01.314Z,98237.78
2023-02-25T19:30:34.255Z,98241.97
2023-02-25T19:33:04.904Z,98241.09
2023-02-25T19:35:37.886Z,98251.16
2023-02-25T19:38:08.640Z,98263.75
2023-02-25T19:40:38.482Z,98263.75
2023-02-25T19:43:08.106Z,98262.88
2023-02-25T19:45:36.549Z,98268.75
2023-02-25T19:48:05.661Z,98270.41
2023-02-25T19:50:37.272Z,98262.06
2023-02-25T19:53:06.851Z,98278.03
2023-02-25T19:55:35.686Z,98282.19
2023-02-25T19:58:04.407Z,98272.09
2023-02-25T20:00:33.846Z,98267.06
2023-02-25T20:03:02.722Z,98260.34
2023-02-25T20:05:32.487Z,98251.16
2023-02-25T20:08:02.844Z,98253.66
2023-02-25T20:10:31.609Z,98247.72
2023-02-25T20:13:00.136Z,98262.03
2023-02-25T20:15:29.363Z,98283.00
2023-02-25T20:17:58.077Z,98284.63
2023-02-25T20:20:26.865Z,98282.97
2023-02-25T20:22:55.586Z,98281.28
2023-02-25T20:25:25.798Z,98280.47
2023-02-25T20:27:54.574Z,98285.47
2023-02-25T20:30:24.055Z,98286.28
2023-02-25T20:32:52.573Z,98287.97
2023-02-25T20:35:23.112Z,98288.75
2023-02-25T20:38:09.990Z,98273.63
2023-02-25T20:40:40.593Z,98265.19
2023-02-25T20:43:13.820Z,98290.38
2023-02-25T20:45:43.262Z,98304.66
2023-02-25T20:48:29.225Z,98306.38
2023-02-25T20:50:59.036Z,98297.09
2023-02-25T20:53:28.515Z,98310.56
2023-02-25T20:55:59.504Z,98328.22
2023-02-25T20:58:28.365Z,98341.72
2023-02-25T21:00:57.408Z,98340.94
2023-02-25T21:03:26.303Z,98339.22
2023-02-25T21:05:55.062Z,98345.91
2023-02-25T21:08:23.918Z,98342.56
2023-02-25T21:10:52.759Z,98340.06
2023-02-25T21:13:22.944Z,98345.09
2023-02-25T21:15:51.730Z,98335.81
2023-02-25T21:18:20.529Z,98327.38
2023-02-25T21:20:49.368Z,98315.59
2023-02-25T21:23:18.106Z,98312.22
2023-02-25T21:25:47.294Z,98323.16
2023-02-25T21:28:15.958Z,98320.63
2023-02-25T21:30:46.280Z,98326.38
2023-02-25T21:33:16.094Z,98330.53
2023-02-25T21:35:46.010Z,98315.34
2023-02-25T21:38:14.796Z,98347.44
2023-02-25T21:40:43.724Z,98375.97
2023-02-25T21:43:12.519Z,98394.41
2023-02-25T21:45:41.317Z,98384.31
2023-02-25T21:48:11.572Z,98384.34
2023-02-25T21:50:46.219Z,98386.81
2023-02-25T21:53:15.133Z,98365.81
2023-02-25T21:55:44.919Z,98357.44
2023-02-25T21:58:14.072Z,98344.00
2023-02-25T22:00:43.347Z,98342.31
2023-02-25T22:03:13.476Z,98347.28
2023-02-25T22:05:46.338Z,98363.19
2023-02-25T22:08:15.313Z,98364.06
2023-02-25T22:10:43.993Z,98354.09
2023-02-25T22:13:12.824Z,98365.03
2023-02-25T22:15:43.907Z,98389.34
2023-02-25T22:18:14.344Z,98411.13
2023-02-25T22:20:43.030Z,98406.84
2023-02-25T22:23:11.779Z,98397.53
2023-02-25T22:25:40.875Z,98395.09
2023-02-25T22:28:09.801Z,98387.53
2023-02-25T22:30:38.482Z,98391.75
2023-02-25T22:33:07.307Z,98400.94
2023-02-25T22:35:37.572Z,98395.91
2023-02-25T22:38:06.720Z,98388.38
2023-02-25T22:40:35.329Z,98369.97
2023-02-25T22:43:04.160Z,98341.44
2023-02-25T22:45:32.804Z,98357.38
2023-02-25T22:48:01.530Z,98393.47
2023-02-25T22:50:30.327Z,98404.31
2023-02-25T22:53:00.485Z,98415.28
2023-02-25T22:55:29.236Z,98417.84
2023-02-25T22:57:57.890Z,98421.28
2023-02-25T23:00:26.558Z,98429.69
2023-02-25T23:02:55.644Z,98408.69
2023-02-25T23:05:24.354Z,98414.56
2023-02-25T23:08:00.834Z,98402.75
2023-02-25T23:10:30.055Z,98403.53
2023-02-25T23:12:59.353Z,98404.34
2023-02-25T23:15:28.943Z,98404.34
2023-02-25T23:17:57.580Z,98408.44
2023-02-25T23:20:26.025Z,98420.22
2023-02-25T23:22:55.073Z,98436.22
2023-02-25T23:25:25.082Z,98449.69
2023-02-25T23:27:53.584Z,98458.06
2023-02-25T23:30:22.373Z,98459.75
2023-02-25T23:32:50.865Z,98456.38
2023-02-25T23:35:19.523Z,98448.06
2023-02-25T23:37:48.319Z,98451.38
2023-02-25T23:40:18.084Z,98463.97
2023-02-25T23:42:47.731Z,98472.38
2023-02-25T23:45:16.636Z,98483.31
2023-02-25T23:47:45.132Z,98479.94
2023-02-25T23:50:16.403Z,98482.59
2023-02-25T23:52:45.377Z,98464.91
2023-02-25T23:55:15.904Z,98454.94
2023-02-25T23:57:44.533Z,98434.75
